Time;durP1;ratioP1;P1;durP2;ratioP2;P2;SDS_P1;SDS_P2;PMS_P1;PMS_P2;Temp;Humidity;BMP_temperature;BMP_pressure;BME280_temperature;BME280_humidity;BME280_pressure;Samples;Min_cycle;Max_cycle;Signal;HPM_P1;HPM_P2
2022/11/10 00:01:47;;;;;;;;;;;10.00;96.00;;;;;;5065480;28;19912;-75
2022/11/10 00:04:13;;;;;;;;;;;10.00;96.00;;;;;;5069184;28;19920;-73
2022/11/10 00:06:39;;;;;;;;;;;10.00;96.00;;;;;;5073301;28;19920;-73
2022/11/10 00:09:05;;;;;;;;;;;9.90;96.10;;;;;;5068533;28;20386;-73
2022/11/10 00:11:31;;;;;;;;;;;9.90;96.10;;;;;;5080309;28;19913;-77
2022/11/10 00:19:24;;;;;;;;;;;9.70;96.30;;;;;;5066308;28;20399;-72
2022/11/10 00:21:50;;;;;;;;;;;9.70;96.30;;;;;;5072628;28;19905;-72
2022/11/10 00:24:15;;;;;;;;;;;9.60;96.50;;;;;;5065485;28;20310;-73
2022/11/10 00:26:41;;;;;;;;;;;9.70;96.40;;;;;;5072917;28;19916;-73
2022/11/10 00:29:06;;;;;;;;;;;9.60;96.40;;;;;;5070076;28;19924;-75
2022/11/10 00:31:31;;;;;;;;;;;9.50;96.40;;;;;;5072294;28;20419;-74
2022/11/10 00:33:57;;;;;;;;;;;9.60;96.60;;;;;;5065951;28;19926;-73
2022/11/10 00:36:22;;;;;;;;;;;9.60;96.60;;;;;;5066344;28;19920;-73
2022/11/10 00:38:51;;;;;;;;;;;9.60;96.60;;;;;;5071375;28;19924;-73
2022/11/10 00:41:16;;;;;;;;;;;9.60;96.60;;;;;;5072089;28;20284;-75
2022/11/10 00:43:42;;;;;;;;;;;9.60;96.60;;;;;;5069241;28;19912;-73
2022/11/10 00:46:07;;;;;;;;;;;9.60;96.50;;;;;;5068306;28;19912;-74
2022/11/10 00:48:32;;;;;;;;;;;9.60;96.50;;;;;;5072253;28;19913;-73
2022/11/10 00:50:58;;;;;;;;;;;9.60;96.40;;;;;;5068210;28;19919;-73
2022/11/10 00:53:24;;;;;;;;;;;9.50;96.40;;;;;;5064353;28;20356;-74
2022/11/10 00:55:49;;;;;;;;;;;9.60;96.50;;;;;;5069246;28;19920;-73
2022/11/10 00:58:15;;;;;;;;;;;9.50;96.40;;;;;;5063636;28;19920;-74
2022/11/10 01:00:40;;;;;;;;;;;9.50;96.50;;;;;;5062904;28;19913;-74
2022/11/10 01:03:06;;;;;;;;;;;9.50;96.30;;;;;;5064735;28;19919;-73
2022/11/10 01:05:35;;;;;;;;;;;9.50;96.40;;;;;;5069551;28;19923;-74
2022/11/10 01:08:01;;;;;;;;;;;9.40;96.40;;;;;;5070754;28;19916;-73
2022/11/10 01:10:26;;;;;;;;;;;9.40;96.40;;;;;;5067493;28;20387;-73
2022/11/10 01:12:52;;;;;;;;;;;9.30;96.50;;;;;;5067123;28;19966;-73
2022/11/10 01:15:19;;;;;;;;;;;9.30;96.60;;;;;;5071250;28;20399;-74
2022/11/10 01:17:44;;;;;;;;;;;9.30;96.80;;;;;;5068816;28;20257;-73
2022/11/10 01:20:10;;;;;;;;;;;9.30;96.60;;;;;;5081897;28;19920;-75
2022/11/10 01:22:35;;;;;;;;;;;9.20;96.60;;;;;;5070454;28;19951;-72
2022/11/10 01:25:01;;;;;;;;;;;9.10;96.70;;;;;;5071975;28;20361;-73
2022/11/10 01:27:26;;;;;;;;;;;9.10;96.90;;;;;;5070159;28;19916;-73
2022/11/10 01:29:52;;;;;;;;;;;9.10;96.90;;;;;;5071713;28;19977;-73
2022/11/10 01:32:17;;;;;;;;;;;9.10;96.80;;;;;;5062427;28;19920;-74
2022/11/10 01:34:43;;;;;;;;;;;9.10;96.90;;;;;;5066389;28;19916;-73
2022/11/10 01:37:10;;;;;;;;;;;9.10;96.80;;;;;;5070384;28;19940;-73
2022/11/10 01:39:35;;;;;;;;;;;9.00;96.80;;;;;;5072075;28;20365;-73
2022/11/10 01:42:00;;;;;;;;;;;8.90;96.90;;;;;;5070080;28;19919;-73
2022/11/10 01:44:26;;;;;;;;;;;8.90;97.00;;;;;;5070792;28;19908;-73
2022/11/10 01:46:52;;;;;;;;;;;8.90;97.00;;;;;;5065474;28;19932;-75
2022/11/10 01:49:19;;;;;;;;;;;8.80;97.00;;;;;;5069553;28;19956;-73
2022/11/10 01:51:48;;;;;;;;;;;8.90;97.10;;;;;;5066571;28;19919;-77
2022/11/10 01:54:17;;;;;;;;;;;8.90;97.10;;;;;;5069765;28;20015;-73
2022/11/10 01:56:44;;;;;;;;;;;8.90;97.10;;;;;;5062017;28;19999;-73
2022/11/10 01:59:12;;;;;;;;;;;9.00;97.20;;;;;;5061613;28;20334;-73
2022/11/10 02:01:38;;;;;;;;;;;9.00;97.10;;;;;;5057250;28;19916;-73
2022/11/10 02:04:05;;;;;;;;;;;9.00;97.00;;;;;;5069419;28;19918;-73
2022/11/10 02:06:32;;;;;;;;;;;9.10;97.00;;;;;;5069335;28;20267;-73
2022/11/10 02:08:58;;;;;;;;;;;9.10;96.90;;;;;;5061891;28;19938;-72
2022/11/10 02:11:24;;;;;;;;;;;9.00;97.00;;;;;;5072176;28;19912;-73
2022/11/10 02:13:50;;;;;;;;;;;9.00;97.00;;;;;;5067958;28;19916;-72
2022/11/10 02:16:15;;;;;;;;;;;9.10;97.10;;;;;;5066901;28;20348;-75
2022/11/10 02:18:40;;;;;;;;;;;9.20;97.00;;;;;;5069010;28;19920;-74
2022/11/10 02:21:07;;;;;;;;;;;9.20;96.90;;;;;;5070274;28;19955;-74
2022/11/10 02:23:36;;;;;;;;;;;9.10;96.90;;;;;;5070768;28;20343;-73
2022/11/10 02:26:03;;;;;;;;;;;9.10;96.90;;;;;;5070564;28;19916;-73
2022/11/10 02:28:31;;;;;;;;;;;9.10;97.00;;;;;;5069744;28;19940;-73
2022/11/10 02:30:57;;;;;;;;;;;9.20;96.90;;;;;;5064069;28;19923;-72
2022/11/10 02:33:22;;;;;;;;;;;9.20;96.90;;;;;;5061614;28;19916;-73
2022/11/10 02:35:48;;;;;;;;;;;9.20;96.80;;;;;;5060507;28;19920;-73
2022/11/10 02:38:13;;;;;;;;;;;9.20;96.80;;;;;;5070997;28;19924;-74
2022/11/10 02:40:39;;;;;;;;;;;9.10;96.80;;;;;;5061609;28;20490;-74
2022/11/10 02:43:05;;;;;;;;;;;9.10;96.80;;;;;;5066694;28;20370;-73
2022/11/10 02:45:30;;;;;;;;;;;9.10;96.90;;;;;;5073393;28;19994;-74
2022/11/10 02:47:56;;;;;;;;;;;9.00;97.00;;;;;;5071527;28;19999;-73
2022/11/10 02:50:21;;;;;;;;;;;9.10;97.20;;;;;;5074424;28;19919;-73
2022/11/10 02:52:47;;;;;;;;;;;9.00;97.30;;;;;;5065145;28;20265;-73
2022/11/10 02:55:12;;;;;;;;;;;9.00;97.20;;;;;;5062592;28;19917;-74
2022/11/10 02:57:38;;;;;;;;;;;9.00;97.20;;;;;;5065433;28;19916;-73
2022/11/10 03:00:04;;;;;;;;;;;9.00;97.30;;;;;;5077195;28;19920;-73
2022/11/10 03:02:30;;;;;;;;;;;9.00;97.40;;;;;;5071625;28;20353;-73
2022/11/10 03:04:55;;;;;;;;;;;9.00;97.30;;;;;;5078709;28;19926;-75
2022/11/10 03:07:20;;;;;;;;;;;9.00;97.30;;;;;;5070861;28;19919;-73
2022/11/10 03:09:46;;;;;;;;;;;9.10;97.30;;;;;;5066780;28;19919;-73
2022/11/10 03:12:11;;;;;;;;;;;9.10;97.10;;;;;;5070983;28;19924;-73
2022/11/10 03:14:37;;;;;;;;;;;9.10;97.10;;;;;;5062154;28;19912;-73
2022/11/10 03:17:02;;;;;;;;;;;9.20;97.10;;;;;;5065864;28;20439;-73
2022/11/10 03:19:27;;;;;;;;;;;9.20;97.10;;;;;;5077028;28;19978;-73
2022/11/10 03:21:53;;;;;;;;;;;9.10;97.00;;;;;;5069220;28;20394;-73
2022/11/10 03:24:18;;;;;;;;;;;9.20;97.00;;;;;;5071381;28;19952;-75
2022/11/10 03:26:44;;;;;;;;;;;9.20;96.90;;;;;;5060404;28;19909;-74
2022/11/10 03:29:09;;;;;;;;;;;9.20;96.90;;;;;;5069227;28;20298;-73
2022/11/10 03:31:34;;;;;;;;;;;9.20;96.90;;;;;;5070871;28;20349;-73
2022/11/10 03:34:00;;;;;;;;;;;9.20;96.90;;;;;;5071394;28;19912;-73
2022/11/10 03:36:25;;;;;;;;;;;9.20;96.80;;;;;;5065304;28;20367;-73
2022/11/10 03:38:51;;;;;;;;;;;9.30;96.80;;;;;;5071565;28;19971;-73
2022/11/10 03:41:16;;;;;;;;;;;9.20;96.80;;;;;;5072227;28;20019;-73
2022/11/10 03:43:41;;;;;;;;;;;9.20;96.80;;;;;;5062013;28;19916;-74
2022/11/10 03:46:07;;;;;;;;;;;9.20;96.80;;;;;;5072472;28;20368;-73
2022/11/10 03:48:33;;;;;;;;;;;9.20;96.80;;;;;;5071701;28;19927;-73
2022/11/10 03:50:58;;;;;;;;;;;9.20;96.80;;;;;;5065330;28;20709;-73
2022/11/10 03:53:23;;;;;;;;;;;9.10;96.80;;;;;;5071553;28;21018;-73
2022/11/10 03:55:49;;;;;;;;;;;9.10;96.80;;;;;;5064031;28;19958;-73
2022/11/10 03:58:14;;;;;;;;;;;9.10;96.80;;;;;;5073363;28;19993;-73
2022/11/10 04:00:40;;;;;;;;;;;9.10;96.90;;;;;;5069291;28;20361;-74
2022/11/10 04:03:05;;;;;;;;;;;9.10;96.80;;;;;;5070209;28;19916;-73
2022/11/10 04:10:59;;;;;;;;;;;9.00;96.90;;;;;;5067260;28;19939;-74
2022/11/10 04:16:09;;;;;;;;;;;9.00;96.90;;;;;;5067656;28;20280;-73
2022/11/10 04:18:34;;;;;;;;;;;8.90;96.90;;;;;;5068271;28;19920;-73
2022/11/10 04:21:00;;;;;;;;;;;8.80;97.00;;;;;;5068743;28;19917;-73
2022/11/10 04:23:27;;;;;;;;;;;8.80;97.00;;;;;;5072817;28;19915;-73
2022/11/10 04:28:46;;;;;;;;;;;8.70;97.20;;;;;;5052027;28;19916;-73
2022/11/10 04:31:12;;;;;;;;;;;8.60;97.30;;;;;;5077963;28;20019;-73
2022/11/10 04:33:37;;;;;;;;;;;8.60;97.40;;;;;;5064978;28;20003;-73
2022/11/10 04:36:03;;;;;;;;;;;8.60;97.50;;;;;;5079038;28;19948;-72
2022/11/10 04:38:28;;;;;;;;;;;8.60;97.50;;;;;;5062583;28;19929;-74
2022/11/10 04:40:54;;;;;;;;;;;8.50;97.60;;;;;;5084038;28;19919;-73
2022/11/10 04:43:20;;;;;;;;;;;8.50;97.70;;;;;;5061998;28;19920;-73
2022/11/10 04:45:45;;;;;;;;;;;8.40;97.70;;;;;;5072120;28;19961;-73
2022/11/10 04:48:10;;;;;;;;;;;8.40;97.80;;;;;;5066244;28;19912;-72
2022/11/10 04:50:36;;;;;;;;;;;8.40;97.80;;;;;;5071841;28;19912;-72
2022/11/10 04:53:01;;;;;;;;;;;8.30;97.90;;;;;;5066101;28;19923;-73
2022/11/10 04:55:27;;;;;;;;;;;8.20;97.90;;;;;;5065432;28;19923;-73
2022/11/10 04:57:52;;;;;;;;;;;8.20;98.00;;;;;;5067449;28;19920;-76
2022/11/10 05:00:18;;;;;;;;;;;8.20;98.20;;;;;;5066765;28;20454;-73
2022/11/10 05:02:43;;;;;;;;;;;8.30;98.30;;;;;;5061747;28;19913;-74
2022/11/10 05:05:08;;;;;;;;;;;8.30;98.20;;;;;;5062761;28;20002;-73
2022/11/10 05:07:34;;;;;;;;;;;8.20;98.20;;;;;;5069940;28;20362;-73
2022/11/10 05:09:59;;;;;;;;;;;8.20;98.30;;;;;;5062241;28;20488;-73
2022/11/10 05:12:25;;;;;;;;;;;8.20;98.50;;;;;;5070161;28;19912;-76
2022/11/10 05:14:50;;;;;;;;;;;8.30;98.50;;;;;;5065573;28;20003;-74
2022/11/10 05:17:16;;;;;;;;;;;8.20;98.40;;;;;;5065855;28;19919;-73
2022/11/10 05:19:41;;;;;;;;;;;8.30;98.40;;;;;;5066606;28;19947;-74
2022/11/10 05:22:06;;;;;;;;;;;8.30;98.40;;;;;;5063162;28;20299;-73
2022/11/10 05:24:32;;;;;;;;;;;8.20;98.40;;;;;;5065498;28;20350;-73
2022/11/10 05:26:58;;;;;;;;;;;8.20;98.40;;;;;;5062664;28;20396;-73
2022/11/10 05:29:23;;;;;;;;;;;8.20;98.40;;;;;;5072624;28;20361;-72
2022/11/10 05:31:48;;;;;;;;;;;8.20;98.30;;;;;;5069743;28;20396;-70
2022/11/10 05:34:14;;;;;;;;;;;8.20;98.40;;;;;;5078477;28;19912;-69
2022/11/10 05:36:39;;;;;;;;;;;8.10;98.40;;;;;;5064384;28;19951;-69
2022/11/10 05:39:05;;;;;;;;;;;8.20;98.50;;;;;;5062928;28;19974;-70
2022/11/10 05:41:30;;;;;;;;;;;8.20;98.50;;;;;;5068421;28;19920;-69
2022/11/10 05:43:55;;;;;;;;;;;8.10;98.50;;;;;;5066248;28;19916;-70
2022/11/10 05:46:21;;;;;;;;;;;8.10;98.50;;;;;;5068639;28;20265;-69
2022/11/10 05:48:46;;;;;;;;;;;8.10;98.50;;;;;;5063274;28;19920;-71
2022/11/10 05:51:12;;;;;;;;;;;8.10;98.50;;;;;;5063340;28;19962;-70
2022/11/10 05:53:37;;;;;;;;;;;8.00;98.50;;;;;;5069991;28;19913;-69
2022/11/10 05:56:03;;;;;;;;;;;8.00;98.60;;;;;;5070045;28;19912;-69
2022/11/10 05:58:28;;;;;;;;;;;8.00;98.70;;;;;;5059893;28;19931;-69
2022/11/10 06:00:53;;;;;;;;;;;8.00;98.80;;;;;;5057035;28;20336;-70
2022/11/10 06:03:19;;;;;;;;;;;7.90;98.70;;;;;;5058674;28;19916;-69
2022/11/10 06:05:44;;;;;;;;;;;7.90;98.80;;;;;;5058259;28;19912;-69
2022/11/10 06:08:10;;;;;;;;;;;7.90;98.90;;;;;;5061207;28;19913;-69
2022/11/10 06:10:36;;;;;;;;;;;7.90;98.90;;;;;;5074890;28;19912;-68
2022/11/10 06:13:01;;;;;;;;;;;7.90;98.90;;;;;;5058874;28;19920;-69
2022/11/10 06:15:27;;;;;;;;;;;7.90;98.90;;;;;;5062075;28;19948;-69
2022/11/10 06:17:53;;;;;;;;;;;7.90;98.90;;;;;;5068863;28;20289;-70
2022/11/10 06:20:18;;;;;;;;;;;7.90;99.00;;;;;;5076740;28;19970;-69
2022/11/10 06:22:44;;;;;;;;;;;8.00;99.00;;;;;;5074599;28;19991;-70
2022/11/10 06:25:10;;;;;;;;;;;8.00;99.00;;;;;;5083131;28;19915;-69
2022/11/10 06:27:35;;;;;;;;;;;8.00;99.00;;;;;;5072372;28;19927;-68
2022/11/10 06:30:02;;;;;;;;;;;8.10;99.00;;;;;;5074845;28;19920;-70
2022/11/10 06:32:27;;;;;;;;;;;8.10;99.00;;;;;;5076901;28;20288;-68
2022/11/10 06:34:53;;;;;;;;;;;8.10;99.00;;;;;;5075393;28;19909;-70
2022/11/10 06:37:18;;;;;;;;;;;8.20;99.00;;;;;;5072162;28;19913;-69
2022/11/10 06:39:44;;;;;;;;;;;8.30;98.90;;;;;;5073674;28;19924;-68
2022/11/10 06:42:09;;;;;;;;;;;8.40;98.90;;;;;;5073855;28;20003;-69
2022/11/10 06:44:34;;;;;;;;;;;8.50;98.70;;;;;;5083225;28;20049;-68
2022/11/10 06:47:00;;;;;;;;;;;8.50;98.70;;;;;;5070911;28;19913;-69
2022/11/10 06:49:25;;;;;;;;;;;8.50;98.70;;;;;;5069504;28;19912;-68
2022/11/10 06:51:51;;;;;;;;;;;8.50;98.60;;;;;;5069001;28;19917;-67
2022/11/10 06:54:16;;;;;;;;;;;8.60;98.60;;;;;;5071437;28;19916;-69
2022/11/10 06:56:41;;;;;;;;;;;8.60;98.50;;;;;;5062126;28;19974;-69
2022/11/10 06:59:07;;;;;;;;;;;8.70;98.50;;;;;;5059847;28;19928;-69
2022/11/10 07:01:32;;;;;;;;;;;8.70;98.50;;;;;;5066205;28;19921;-68
2022/11/10 07:03:58;;;;;;;;;;;8.70;98.50;;;;;;5067177;28;19916;-68
2022/11/10 07:06:23;;;;;;;;;;;8.80;98.50;;;;;;5074538;28;19909;-67
2022/11/10 07:08:48;;;;;;;;;;;8.80;98.40;;;;;;5066275;28;19920;-68
2022/11/10 07:11:14;;;;;;;;;;;8.80;98.40;;;;;;5075018;28;19909;-69
2022/11/10 07:13:40;;;;;;;;;;;8.80;98.40;;;;;;5068588;28;20004;-72
2022/11/10 07:16:06;;;;;;;;;;;8.90;98.30;;;;;;5064046;28;19913;-71
2022/11/10 07:18:32;;;;;;;;;;;8.90;98.30;;;;;;5066083;28;19986;-71
2022/11/10 07:20:57;;;;;;;;;;;9.00;98.20;;;;;;5063845;28;19913;-71
2022/11/10 07:23:23;;;;;;;;;;;9.00;98.20;;;;;;5059382;28;20357;-71
2022/11/10 07:25:48;;;;;;;;;;;9.10;98.20;;;;;;5072299;28;19920;-72
2022/11/10 07:28:14;;;;;;;;;;;9.10;98.10;;;;;;5070337;28;19959;-74
2022/11/10 07:30:40;;;;;;;;;;;9.10;98.10;;;;;;5071836;28;19923;-72
2022/11/10 07:33:08;;;;;;;;;;;9.20;98.00;;;;;;5065022;28;19920;-73
2022/11/10 07:35:33;;;;;;;;;;;9.20;98.00;;;;;;5070786;28;19916;-72
2022/11/10 07:38:06;;;;;;;;;;;9.20;97.90;;;;;;5071633;28;20260;-71
2022/11/10 07:40:32;;;;;;;;;;;9.30;97.90;;;;;;5066404;28;20222;-72
2022/11/10 07:42:58;;;;;;;;;;;9.30;97.90;;;;;;5069036;28;19912;-71
2022/11/10 07:45:24;;;;;;;;;;;9.30;97.80;;;;;;5068313;28;20281;-73
2022/11/10 07:47:49;;;;;;;;;;;9.40;97.80;;;;;;5067046;28;19920;-73
2022/11/10 07:50:15;;;;;;;;;;;9.30;97.70;;;;;;5066192;28;20459;-75
2022/11/10 07:52:40;;;;;;;;;;;9.40;97.60;;;;;;5069399;28;20391;-74
2022/11/10 07:55:06;;;;;;;;;;;9.50;97.60;;;;;;5064997;28;19912;-70
2022/11/10 07:57:32;;;;;;;;;;;9.50;97.60;;;;;;5066123;28;19920;-72
2022/11/10 07:59:57;;;;;;;;;;;9.50;97.50;;;;;;5066611;28;20270;-71
2022/11/10 08:02:22;;;;;;;;;;;9.50;97.40;;;;;;5060108;28;19912;-71
2022/11/10 08:04:48;;;;;;;;;;;9.50;97.30;;;;;;5070399;28;19916;-72
2022/11/10 08:07:13;;;;;;;;;;;9.60;97.20;;;;;;5063875;28;19920;-74
2022/11/10 08:09:39;;;;;;;;;;;9.60;97.10;;;;;;5064668;28;19955;-72
2022/11/10 08:12:28;;;;;;;;;;;9.70;97.10;;;;;;5075393;28;20007;-73
2022/11/10 08:15:00;;;;;;;;;;;9.70;97.00;;;;;;5066752;28;19920;-73
2022/11/10 08:17:26;;;;;;;;;;;9.70;97.00;;;;;;5062194;28;20003;-73
2022/11/10 08:19:53;;;;;;;;;;;9.80;96.90;;;;;;5065761;28;19998;-74
2022/11/10 08:22:19;;;;;;;;;;;9.80;96.80;;;;;;5061008;28;19916;-73
2022/11/10 08:24:45;;;;;;;;;;;9.80;96.80;;;;;;5068372;28;19991;-73
2022/11/10 08:27:10;;;;;;;;;;;9.90;96.70;;;;;;5065075;28;20306;-74
2022/11/10 08:29:38;;;;;;;;;;;9.90;96.70;;;;;;5068115;28;19915;-73
2022/11/10 08:32:21;;;;;;;;;;;10.00;96.60;;;;;;5062665;28;19919;-73
2022/11/10 08:34:47;;;;;;;;;;;10.10;96.60;;;;;;5064568;28;19913;-73
2022/11/10 08:37:13;;;;;;;;;;;10.10;96.30;;;;;;5069805;28;20039;-73
2022/11/10 08:39:47;;;;;;;;;;;10.10;96.20;;;;;;5064125;28;19924;-73
2022/11/10 08:42:15;;;;;;;;;;;10.30;96.10;;;;;;5059862;28;19916;-74
2022/11/10 08:44:41;;;;;;;;;;;10.30;95.90;;;;;;5067367;28;19917;-74
2022/11/10 08:47:06;;;;;;;;;;;10.40;95.90;;;;;;5063588;28;20022;-74
2022/11/10 08:49:34;;;;;;;;;;;10.40;95.80;;;;;;5061581;28;19920;-75
2022/11/10 08:51:59;;;;;;;;;;;10.30;95.80;;;;;;5068564;28;19920;-72
2022/11/10 08:54:25;;;;;;;;;;;10.30;95.80;;;;;;5070479;28;20360;-73
2022/11/10 08:56:51;;;;;;;;;;;10.30;95.80;;;;;;5064008;28;19925;-74
2022/11/10 08:59:16;;;;;;;;;;;10.40;95.90;;;;;;5058643;28;19920;-71
2022/11/10 09:01:42;;;;;;;;;;;10.30;95.90;;;;;;5054188;28;20377;-72
2022/11/10 09:04:07;;;;;;;;;;;10.30;95.70;;;;;;5065246;28;19917;-72
2022/11/10 09:06:32;;;;;;;;;;;10.40;95.60;;;;;;5070095;28;20277;-71
2022/11/10 09:08:58;;;;;;;;;;;10.50;95.50;;;;;;5062764;28;19912;-71
2022/11/10 09:11:23;;;;;;;;;;;10.60;95.40;;;;;;5070725;28;19913;-71
2022/11/10 09:13:49;;;;;;;;;;;10.70;95.00;;;;;;5065446;28;20035;-71
2022/11/10 09:16:14;;;;;;;;;;;10.80;95.00;;;;;;5072710;28;19920;-71
2022/11/10 09:18:40;;;;;;;;;;;10.90;94.40;;;;;;5063058;28;19920;-73
2022/11/10 09:21:10;;;;;;;;;;;10.90;94.20;;;;;;5067403;28;19921;-71
2022/11/10 09:23:36;;;;;;;;;;;11.00;94.10;;;;;;5062998;28;19916;-72
2022/11/10 09:26:01;;;;;;;;;;;11.20;93.90;;;;;;5067511;28;20037;-72
2022/11/10 09:28:27;;;;;;;;;;;11.20;93.30;;;;;;5069983;28;20356;-73
2022/11/10 09:30:52;;;;;;;;;;;11.20;93.30;;;;;;5066849;28;19923;-71
2022/11/10 09:33:18;;;;;;;;;;;11.30;93.30;;;;;;5067845;28;20023;-70
2022/11/10 09:35:43;;;;;;;;;;;11.20;92.90;;;;;;5068257;28;19916;-69
2022/11/10 09:38:10;;;;;;;;;;;11.30;93.00;;;;;;5055833;28;19920;-69
2022/11/10 09:40:42;;;;;;;;;;;11.20;93.10;;;;;;5066049;28;20019;-70
2022/11/10 09:43:12;;;;;;;;;;;11.10;93.20;;;;;;5067449;28;19909;-71
2022/11/10 09:45:43;;;;;;;;;;;11.10;93.10;;;;;;5068696;28;19909;-71
2022/11/10 09:48:21;;;;;;;;;;;11.10;93.20;;;;;;5070800;28;19920;-69
2022/11/10 09:50:49;;;;;;;;;;;11.20;93.30;;;;;;5067361;28;19908;-70
2022/11/10 09:53:18;;;;;;;;;;;11.10;93.20;;;;;;5065894;28;19913;-69
2022/11/10 09:56:04;;;;;;;;;;;11.10;93.10;;;;;;5069276;28;19916;-70
2022/11/10 09:58:50;;;;;;;;;;;11.20;93.10;;;;;;5063604;28;20285;-70
2022/11/10 10:01:26;;;;;;;;;;;11.30;93.00;;;;;;5069000;28;19919;-73
2022/11/10 10:03:57;;;;;;;;;;;11.40;92.90;;;;;;5069905;28;19908;-72
2022/11/10 10:06:23;;;;;;;;;;;11.50;92.70;;;;;;5071970;28;19913;-72
2022/11/10 10:08:54;;;;;;;;;;;11.50;92.30;;;;;;5070219;28;20003;-70
2022/11/10 10:11:38;;;;;;;;;;;11.40;92.40;;;;;;5071712;28;19916;-71
2022/11/10 10:14:08;;;;;;;;;;;11.40;92.50;;;;;;5066835;28;20368;-70
2022/11/10 10:16:33;;;;;;;;;;;11.50;92.30;;;;;;5076136;28;20240;-69
2022/11/10 10:19:14;;;;;;;;;;;11.60;91.80;;;;;;5073826;28;19917;-69
2022/11/10 10:21:39;;;;;;;;;;;11.80;91.70;;;;;;5066504;28;20011;-69
2022/11/10 10:24:08;;;;;;;;;;;11.80;91.30;;;;;;5071431;28;19991;-71
2022/11/10 10:26:37;;;;;;;;;;;12.00;91.30;;;;;;5074392;28;20256;-71
2022/11/10 10:29:11;;;;;;;;;;;12.20;90.70;;;;;;5065075;28;19962;-73
2022/11/10 10:31:42;;;;;;;;;;;12.40;90.10;;;;;;5071033;28;19966;-69
2022/11/10 10:34:12;;;;;;;;;;;12.30;89.50;;;;;;5058977;28;19913;-72
2022/11/10 10:36:38;;;;;;;;;;;12.40;89.80;;;;;;5068624;28;19915;-72
2022/11/10 10:39:11;;;;;;;;;;;12.30;89.70;;;;;;5070168;28;19924;-69
2022/11/10 10:41:36;;;;;;;;;;;12.30;89.80;;;;;;5076651;28;20382;-73
2022/11/10 10:44:09;;;;;;;;;;;12.50;89.60;;;;;;5070275;28;20032;-69
2022/11/10 10:46:46;;;;;;;;;;;12.60;88.60;;;;;;5069259;28;19923;-68
2022/11/10 10:49:17;;;;;;;;;;;12.70;87.80;;;;;;5072626;28;20011;-70
2022/11/10 10:51:43;;;;;;;;;;;12.80;87.70;;;;;;5064075;28;19917;-69
2022/11/10 10:54:41;;;;;;;;;;;12.70;87.80;;;;;;5068480;28;19919;-70
2022/11/10 10:57:19;;;;;;;;;;;12.70;87.60;;;;;;5038696;28;19916;-74
2022/11/10 10:59:44;;;;;;;;;;;12.80;88.10;;;;;;5073035;28;19920;-69
2022/11/10 11:02:26;;;;;;;;;;;12.70;88.00;;;;;;5078209;28;19942;-72
2022/11/10 11:05:11;;;;;;;;;;;12.70;87.70;;;;;;5072062;28;19995;-70
2022/11/10 11:07:36;;;;;;;;;;;12.60;87.60;;;;;;5065036;28;19916;-71
2022/11/10 11:10:02;;;;;;;;;;;12.60;88.00;;;;;;5069697;28;20288;-71
2022/11/10 11:12:32;;;;;;;;;;;12.70;88.00;;;;;;5072364;28;20326;-72
2022/11/10 11:15:32;;;;;;;;;;;13.00;87.30;;;;;;5070334;28;19918;-72
2022/11/10 11:17:59;;;;;;;;;;;13.20;86.60;;;;;;5011002;28;19999;-69
2022/11/10 11:20:45;;;;;;;;;;;13.50;86.00;;;;;;5053168;28;20691;-71
2022/11/10 11:23:19;;;;;;;;;;;13.40;86.20;;;;;;5063411;28;20280;-72
2022/11/10 11:25:46;;;;;;;;;;;13.20;86.00;;;;;;5065680;28;19919;-71
2022/11/10 11:28:15;;;;;;;;;;;13.10;86.00;;;;;;5068084;28;19961;-72
2022/11/10 11:30:45;;;;;;;;;;;13.30;86.10;;;;;;5060355;28;19994;-72
2022/11/10 11:33:11;;;;;;;;;;;13.30;85.60;;;;;;5073739;28;20310;-71
2022/11/10 11:35:55;;;;;;;;;;;13.50;84.70;;;;;;5069100;28;19917;-71
2022/11/10 11:38:32;;;;;;;;;;;13.50;85.10;;;;;;5066601;28;19920;-70
2022/11/10 11:41:03;;;;;;;;;;;13.60;84.90;;;;;;5075358;28;20014;-70
2022/11/10 11:43:38;;;;;;;;;;;14.00;84.00;;;;;;5072071;28;19912;-73
2022/11/10 11:46:13;;;;;;;;;;;14.00;83.80;;;;;;5069347;28;19920;-72
2022/11/10 11:48:38;;;;;;;;;;;13.70;84.50;;;;;;5070592;28;20360;-72
2022/11/10 11:51:10;;;;;;;;;;;13.60;85.00;;;;;;5071150;28;19916;-70
2022/11/10 11:53:54;;;;;;;;;;;13.50;85.10;;;;;;5065972;28;19912;-70
2022/11/10 11:56:23;;;;;;;;;;;13.20;85.20;;;;;;5059571;28;19917;-70
2022/11/10 11:59:07;;;;;;;;;;;13.20;85.70;;;;;;5065118;28;20463;-70
2022/11/10 12:01:46;;;;;;;;;;;13.10;85.90;;;;;;5071021;28;20384;-71
2022/11/10 12:04:20;;;;;;;;;;;13.30;86.10;;;;;;5071517;28;19956;-71
2022/11/10 12:06:51;;;;;;;;;;;13.50;86.00;;;;;;5071436;28;20364;-70
2022/11/10 12:09:36;;;;;;;;;;;13.50;85.70;;;;;;5071055;28;20450;-70
2022/11/10 12:12:17;;;;;;;;;;;13.30;85.60;;;;;;5069760;28;19916;-71
2022/11/10 12:14:57;;;;;;;;;;;13.40;85.00;;;;;;5068466;28;19927;-69
2022/11/10 12:17:34;;;;;;;;;;;13.30;85.50;;;;;;5051688;28;20694;-71
2022/11/10 12:20:05;;;;;;;;;;;13.30;85.50;;;;;;5068164;28;19924;-70
2022/11/10 12:22:30;;;;;;;;;;;13.20;85.50;;;;;;5066669;28;19913;-72
2022/11/10 12:25:09;;;;;;;;;;;13.30;85.80;;;;;;5073181;28;19915;-70
2022/11/10 12:27:40;;;;;;;;;;;13.30;85.60;;;;;;5063349;28;19909;-70
2022/11/10 12:30:13;;;;;;;;;;;13.30;85.50;;;;;;5067013;28;19939;-70
2022/11/10 12:32:46;;;;;;;;;;;13.30;85.80;;;;;;5066197;28;19952;-71
2022/11/10 12:35:18;;;;;;;;;;;13.10;86.00;;;;;;5066593;28;19969;-72
2022/11/10 12:37:50;;;;;;;;;;;13.00;86.20;;;;;;5069584;28;20337;-74
2022/11/10 12:40:17;;;;;;;;;;;13.00;86.40;;;;;;5073028;28;19920;-72
2022/11/10 12:42:45;;;;;;;;;;;13.00;86.80;;;;;;5071897;28;19921;-73
2022/11/10 12:45:17;;;;;;;;;;;13.00;87.10;;;;;;5071661;28;19923;-74
2022/11/10 12:47:44;;;;;;;;;;;13.00;87.10;;;;;;5070308;28;19923;-73
2022/11/10 12:50:20;;;;;;;;;;;12.90;87.20;;;;;;5070756;28;20414;-71
2022/11/10 12:52:55;;;;;;;;;;;13.00;87.40;;;;;;5071096;28;19931;-72
2022/11/10 12:55:27;;;;;;;;;;;13.00;87.40;;;;;;5068252;28;19939;-72
2022/11/10 12:57:54;;;;;;;;;;;13.00;87.50;;;;;;5072181;28;19919;-72
2022/11/10 13:00:26;;;;;;;;;;;12.90;87.40;;;;;;5069214;28;19923;-71
2022/11/10 13:02:54;;;;;;;;;;;12.90;87.50;;;;;;5063313;28;20035;-72
2022/11/10 13:05:28;;;;;;;;;;;12.90;87.50;;;;;;5070547;28;20419;-71
2022/11/10 13:08:12;;;;;;;;;;;13.00;87.40;;;;;;5069090;28;19913;-71
2022/11/10 13:10:46;;;;;;;;;;;13.00;87.00;;;;;;5073237;28;19908;-71
2022/11/10 13:13:16;;;;;;;;;;;13.00;87.10;;;;;;5069975;28;20013;-72
2022/11/10 13:15:41;;;;;;;;;;;13.00;87.10;;;;;;5070255;28;19912;-71
2022/11/10 13:18:10;;;;;;;;;;;13.00;87.20;;;;;;5071318;28;20415;-72
2022/11/10 13:20:47;;;;;;;;;;;13.00;86.90;;;;;;5070186;28;20374;-72
2022/11/10 13:23:22;;;;;;;;;;;13.10;86.50;;;;;;5072547;28;19928;-71
2022/11/10 13:25:56;;;;;;;;;;;13.10;86.50;;;;;;5081035;28;19919;-72
2022/11/10 13:28:54;;;;;;;;;;;13.10;86.10;;;;;;5082055;28;19916;-75
2022/11/10 13:31:32;;;;;;;;;;;13.20;85.90;;;;;;5043901;28;19913;-73
2022/11/10 13:34:03;;;;;;;;;;;13.20;85.80;;;;;;5066779;28;20011;-72
2022/11/10 13:36:37;;;;;;;;;;;13.20;85.80;;;;;;5051150;28;19919;-71
2022/11/10 13:39:21;;;;;;;;;;;13.20;86.00;;;;;;5064155;28;19924;-73
2022/11/10 13:42:06;;;;;;;;;;;13.20;85.70;;;;;;5070315;28;22820;-74
2022/11/10 13:44:39;;;;;;;;;;;13.20;85.70;;;;;;5068617;28;19952;-73
2022/11/10 13:47:08;;;;;;;;;;;13.20;85.80;;;;;;5069232;28;19921;-71
2022/11/10 13:49:46;;;;;;;;;;;13.20;85.60;;;;;;5069569;28;19959;-71
2022/11/10 13:52:16;;;;;;;;;;;13.20;85.80;;;;;;5067264;28;19936;-72
2022/11/10 13:54:56;;;;;;;;;;;13.10;86.10;;;;;;5070514;28;19916;-71
2022/11/10 13:57:26;;;;;;;;;;;13.10;85.80;;;;;;5056634;28;19920;-73
2022/11/10 13:59:56;;;;;;;;;;;13.10;86.20;;;;;;5069505;28;19920;-71
2022/11/10 14:02:35;;;;;;;;;;;13.10;86.50;;;;;;5068458;28;20001;-72
2022/11/10 14:05:01;;;;;;;;;;;13.10;86.30;;;;;;5065966;28;20366;-70
2022/11/10 14:07:29;;;;;;;;;;;13.10;85.90;;;;;;5069628;28;19912;-71
2022/11/10 14:09:55;;;;;;;;;;;13.10;86.10;;;;;;5069938;28;19919;-71
2022/11/10 14:12:39;;;;;;;;;;;13.20;85.60;;;;;;5069674;28;19909;-72
2022/11/10 14:15:06;;;;;;;;;;;13.20;85.80;;;;;;5067762;28;19913;-75
2022/11/10 14:17:33;;;;;;;;;;;13.20;86.00;;;;;;5067488;28;20058;-72
2022/11/10 14:20:02;;;;;;;;;;;13.20;85.80;;;;;;5070281;28;19935;-70
2022/11/10 14:22:48;;;;;;;;;;;13.20;85.90;;;;;;5061629;28;19912;-71
2022/11/10 14:25:18;;;;;;;;;;;13.20;86.10;;;;;;5070164;28;19970;-70
2022/11/10 14:27:44;;;;;;;;;;;13.20;85.90;;;;;;5068926;28;19913;-72
2022/11/10 14:30:20;;;;;;;;;;;13.10;86.20;;;;;;5067744;28;19912;-71
2022/11/10 14:33:02;;;;;;;;;;;13.20;85.80;;;;;;5062901;28;20046;-71
2022/11/10 14:35:32;;;;;;;;;;;13.20;85.60;;;;;;5070922;28;20057;-71
2022/11/10 14:38:02;;;;;;;;;;;13.20;85.90;;;;;;5070318;28;19928;-70
2022/11/10 14:40:28;;;;;;;;;;;13.10;85.80;;;;;;5073261;28;20296;-71
2022/11/10 14:42:53;;;;;;;;;;;13.10;85.80;;;;;;5069741;28;19916;-71
2022/11/10 14:45:21;;;;;;;;;;;13.10;86.00;;;;;;5073142;28;19919;-71
2022/11/10 14:47:53;;;;;;;;;;;13.10;85.90;;;;;;5068743;28;19912;-71